YAX weather

Lac Du Bonnet Airport
Lac Du Bonnet, Manitoba, Canada

Public forecast

Using degrees Celsius for public forecast. Weather courtesy of forecast.io.

METAR (pilot weather report)

Closest report is Winnipeg / James Armstrong Richardson International Airport, 52.7 nm (97.6 km) WSW. Retrieved 2019/05/25 04:00 UTC (20 minutes ago):

CYWG 250400Z CCA 03009KT 2SM -DZ BR OVC003 09/08 A2964 RMK ST8 SLP043

TAF (pilot weather forecast)

Forecast is more than 12 hours old.

Closest forecast is Winnipeg / James Armstrong Richardson International Airport, 52.7 nm (97.6 km) WSW. Retrieved 2019/05/24 00:47 UTC (1 day ago):

TAF CYWG 242343Z 2500/2524 11012G22KT 6SM -RA BKN012 OVC025 TEMPO 2500/2503 2SM -RA BR BKN008 OVC015 FM250300 08012KT 5SM -RA BR SCT005 OVC012 TEMPO 2503/2512 2SM -RA BR BKN005 OVC012 BECMG 2505/2507 34012KT FM251200 33012KT P6SM BKN020 OVC050 TEMPO 2512/2515 4SM -RA BR BKN008 OVC012 FM251500 31009KT P6SM SCT030 TEMPO 2515/2518 BKN020 FM251800 30012KT P6SM SCT050 TEMPO 2520/2524 BKN040 RMK NXT FCST BY 250600Z